createdAt,value
2018-02-06T00:00:43.944Z,15.48
2018-02-06T00:03:11.526Z,14.63
2018-02-06T00:05:39.143Z,17.35
2018-02-06T00:08:07.052Z,16.48
2018-02-06T00:10:34.839Z,13.57
2018-02-06T00:13:02.492Z,15.82
2018-02-06T00:15:30.134Z,14.63
2018-02-06T00:17:58.879Z,15.02
2018-02-06T00:20:26.528Z,17.37
2018-02-06T00:22:54.165Z,14.27
2018-02-06T00:25:21.776Z,14.25
2018-02-06T00:27:49.420Z,15.10
2018-02-06T00:30:17.105Z,17.00
2018-02-06T00:32:44.865Z,13.90
2018-02-06T00:35:12.467Z,15.90
2018-02-06T00:37:40.077Z,20.90
2018-02-06T00:40:07.722Z,17.55
2018-02-06T00:42:35.343Z,19.58
2018-02-06T00:45:02.968Z,16.17
2018-02-06T00:47:30.617Z,17.52
2018-02-06T00:49:58.243Z,16.40
2018-02-06T00:52:25.853Z,12.50
2018-02-06T00:54:53.465Z,14.93
2018-02-06T00:57:21.391Z,18.17
2018-02-06T00:59:49.873Z,17.73
2018-02-06T01:02:17.491Z,10.90
2018-02-06T01:04:45.068Z,19.25
2018-02-06T01:07:12.734Z,17.25
2018-02-06T01:09:40.368Z,14.77
2018-02-06T01:12:08.030Z,14.95
2018-02-06T01:14:35.749Z,22.33
2018-02-06T01:17:03.412Z,14.07
2018-02-06T01:19:31.036Z,17.95
2018-02-06T01:21:58.944Z,17.55
2018-02-06T01:24:26.840Z,16.12
2018-02-06T01:26:54.463Z,19.25
2018-02-06T01:29:22.074Z,16.42
2018-02-06T01:31:49.733Z,14.48
2018-02-06T01:34:17.715Z,19.85
2018-02-06T01:36:45.361Z,16.17
2018-02-06T01:39:12.948Z,15.75
2018-02-06T01:41:40.599Z,13.82
2018-02-06T01:44:08.268Z,19.40
2018-02-06T01:46:35.871Z,15.88
2018-02-06T01:49:03.507Z,16.20
2018-02-06T01:51:31.151Z,16.83
2018-02-06T01:53:58.816Z,17.77
2018-02-06T01:56:27.539Z,15.82
2018-02-06T01:58:55.286Z,19.37
2018-02-06T02:01:28.422Z,16.23
2018-02-06T02:03:56.359Z,17.87
2018-02-06T02:06:24.388Z,19.12
2018-02-06T02:08:52.026Z,19.98
2018-02-06T02:11:19.634Z,18.12
2018-02-06T02:13:47.604Z,16.23
2018-02-06T02:16:15.606Z,20.15
2018-02-06T02:18:43.415Z,19.92
2018-02-06T02:21:10.991Z,16.17
2018-02-06T02:23:38.942Z,20.45
2018-02-06T02:26:06.525Z,18.75
2018-02-06T02:28:34.637Z,14.15
2018-02-06T02:31:02.266Z,23.00
2018-02-06T02:33:30.213Z,17.75
2018-02-06T02:35:58.246Z,18.60
2018-02-06T02:38:26.190Z,15.05
2018-02-06T02:40:53.772Z,17.25
2018-02-06T04:39:00.574Z,20.42
2018-02-06T04:41:28.256Z,22.05
2018-02-06T04:43:55.936Z,22.55
2018-02-06T04:46:23.599Z,17.10
2018-02-06T04:48:51.290Z,20.85
2018-02-06T04:51:18.894Z,22.85
2018-02-06T04:53:46.522Z,24.23
2018-02-06T04:56:14.138Z,20.83
2018-02-06T04:58:41.841Z,28.17
2018-02-06T05:01:09.430Z,21.48
2018-02-06T05:03:37.110Z,18.50
2018-02-06T05:06:04.991Z,26.58
2018-02-06T05:08:32.810Z,19.85
2018-02-06T05:11:00.525Z,20.85
2018-02-06T05:13:28.131Z,21.02
2018-02-06T05:15:55.786Z,19.70
2018-02-06T05:18:23.471Z,18.67
2018-02-06T05:20:51.996Z,23.48
2018-02-06T05:23:19.771Z,19.50
2018-02-06T05:25:47.438Z,21.17
2018-02-06T05:28:15.145Z,17.90
2018-02-06T05:30:42.844Z,38.33
2018-02-06T05:33:10.501Z,17.98
2018-02-06T05:35:56.740Z,19.77
2018-02-06T05:38:24.558Z,20.85
2018-02-06T05:40:52.283Z,23.80
2018-02-06T05:43:19.948Z,20.95
2018-02-06T05:45:47.545Z,19.85
2018-02-06T05:48:15.281Z,18.45
2018-02-06T05:50:42.919Z,17.83
2018-02-06T05:53:10.546Z,19.58
2018-02-06T05:55:38.643Z,18.58
2018-02-06T05:58:06.300Z,18.60
2018-02-06T06:00:33.938Z,19.67
2018-02-06T06:03:01.577Z,23.10
2018-02-06T06:05:32.942Z,22.33
2018-02-06T06:08:00.957Z,19.52
2018-02-06T06:10:28.918Z,19.65
2018-02-06T06:12:56.891Z,19.35
2018-02-06T06:15:24.531Z,17.27
2018-02-06T06:17:52.147Z,22.85
2018-02-06T06:20:19.798Z,20.37
2018-02-06T06:22:47.457Z,16.73
2018-02-06T06:25:15.123Z,19.48
2018-02-06T06:27:42.747Z,19.27
2018-02-06T06:30:10.423Z,27.55
2018-02-06T06:32:38.046Z,18.12
2018-02-06T06:35:05.722Z,18.65
2018-02-06T06:37:33.403Z,23.02
2018-02-06T06:40:01.021Z,17.25
2018-02-06T06:42:28.646Z,22.95
2018-02-06T06:44:56.322Z,25.00
2018-02-06T06:47:23.957Z,18.48
2018-02-06T06:49:51.632Z,19.65
2018-02-06T06:52:19.304Z,21.35
2018-02-06T06:54:47.015Z,17.52
2018-02-06T06:57:14.900Z,21.30
2018-02-06T06:59:42.576Z,19.85
2018-02-06T07:02:10.184Z,22.33
2018-02-06T07:04:37.849Z,19.77
2018-02-06T07:07:05.707Z,19.35
2018-02-06T07:09:33.372Z,19.60
2018-02-06T07:12:01.051Z,24.12
2018-02-06T07:14:28.802Z,25.25
2018-02-06T07:16:56.517Z,17.62
2018-02-06T07:19:24.201Z,16.17
2018-02-06T07:21:51.918Z,19.15
2018-02-06T07:24:19.616Z,23.85
2018-02-06T07:26:47.261Z,18.08
2018-02-06T07:29:15.244Z,22.42
2018-02-06T07:31:42.915Z,26.52
2018-02-06T07:34:11.346Z,28.05
2018-02-06T07:36:39.006Z,27.25
2018-02-06T07:39:06.590Z,19.60
2018-02-06T07:41:34.270Z,21.95
2018-02-06T07:44:02.246Z,20.15
2018-02-06T07:46:29.901Z,21.58
2018-02-06T07:48:57.537Z,20.10
2018-02-06T07:51:25.252Z,23.10
2018-02-06T07:53:52.874Z,21.15
2018-02-06T07:56:20.507Z,17.70
2018-02-06T07:58:48.139Z,26.30
2018-02-06T08:01:15.822Z,18.05
2018-02-06T08:03:43.477Z,21.05
2018-02-06T08:06:11.117Z,20.27
2018-02-06T08:08:38.761Z,27.85
2018-02-06T08:11:06.608Z,23.20
2018-02-06T08:13:34.269Z,29.85
2018-02-06T08:16:01.926Z,18.02
2018-02-06T08:18:29.813Z,19.00
2018-02-06T08:20:57.481Z,23.20
2018-02-06T08:23:25.104Z,26.02
2018-02-06T08:25:52.745Z,25.67
2018-02-06T08:28:20.431Z,38.30
2018-02-06T08:30:48.079Z,27.83
2018-02-06T08:33:15.735Z,24.30
2018-02-06T08:35:43.459Z,16.67
2018-02-06T08:38:11.065Z,19.30
2018-02-06T08:40:38.666Z,18.85
2018-02-06T08:43:06.340Z,19.40
2018-02-06T08:45:34.014Z,20.12
2018-02-06T08:48:01.658Z,16.15
2018-02-06T08:50:29.253Z,17.85
2018-02-06T08:52:56.888Z,21.50
2018-02-06T08:55:24.560Z,22.00
2018-02-06T08:57:52.178Z,20.65
2018-02-06T09:00:19.830Z,19.10
2018-02-06T09:02:47.522Z,22.85
2018-02-06T09:05:15.119Z,20.70
2018-02-06T09:07:42.825Z,24.40
2018-02-06T09:10:10.590Z,22.27
2018-02-06T09:12:38.185Z,17.77
2018-02-06T09:15:05.814Z,18.40
2018-02-06T09:17:33.459Z,22.30
2018-02-06T09:20:01.085Z,20.92
2018-02-06T09:22:28.730Z,25.60
2018-02-06T09:24:56.381Z,17.90
2018-02-06T09:27:24.085Z,19.48
2018-02-06T09:29:51.684Z,20.02
2018-02-06T09:32:19.326Z,17.67
2018-02-06T09:34:47.009Z,27.08
2018-02-06T09:37:14.647Z,14.23
2018-02-06T09:39:42.270Z,17.42
2018-02-06T09:42:10.076Z,14.80
2018-02-06T09:44:37.700Z,20.48
2018-02-06T09:47:05.344Z,14.63
2018-02-06T09:49:33.219Z,18.33
2018-02-06T09:52:00.794Z,17.90
2018-02-06T09:54:28.436Z,19.80
2018-02-06T09:56:56.062Z,15.00
2018-02-06T09:59:23.698Z,19.33
2018-02-06T10:01:51.278Z,12.73
2018-02-06T10:04:18.916Z,11.77
2018-02-06T10:06:46.583Z,14.07
2018-02-06T10:09:14.214Z,10.60
2018-02-06T10:11:41.813Z,14.02
2018-02-06T10:14:09.418Z,12.93
2018-02-06T10:16:37.034Z,13.05
2018-02-06T10:19:04.650Z,17.90
2018-02-06T10:21:32.286Z,12.43
2018-02-06T10:23:59.949Z,14.85
2018-02-06T10:26:27.596Z,15.15
2018-02-06T10:28:55.219Z,17.02
2018-02-06T10:31:22.886Z,13.40
2018-02-06T10:33:50.541Z,17.87
2018-02-06T10:36:18.140Z,11.90
2018-02-06T10:38:45.839Z,12.23
2018-02-06T10:41:13.568Z,10.32
2018-02-06T10:43:41.132Z,9.20
2018-02-06T10:46:08.738Z,8.02
2018-02-06T10:48:36.821Z,9.40
2018-02-06T10:51:04.717Z,8.30
2018-02-06T10:53:32.352Z,7.45
2018-02-06T10:56:00.009Z,10.68
2018-02-06T10:58:27.664Z,7.60
2018-02-06T11:00:55.339Z,6.70
2018-02-06T11:03:22.950Z,4.12
2018-02-06T11:05:50.849Z,7.05
2018-02-06T11:08:18.463Z,6.97
2018-02-06T11:10:46.137Z,5.18
2018-02-06T11:13:13.900Z,6.03
2018-02-06T11:15:41.553Z,5.47
2018-02-06T11:18:09.214Z,8.38
2018-02-06T11:20:36.843Z,9.20
2018-02-06T11:23:04.506Z,5.95
2018-02-06T11:25:32.147Z,5.10
2018-02-06T11:28:00.139Z,5.07
2018-02-06T11:30:27.851Z,10.85
2018-02-06T11:32:55.560Z,6.18
2018-02-06T11:35:23.525Z,3.55
2018-02-06T11:37:51.133Z,4.37
2018-02-06T11:40:18.721Z,3.15
2018-02-06T11:42:46.367Z,7.03
2018-02-06T11:45:14.006Z,5.05
2018-02-06T11:47:41.934Z,7.20
2018-02-06T11:50:09.577Z,8.88
2018-02-06T11:52:37.145Z,5.40
2018-02-06T11:55:04.744Z,5.57
2018-02-06T11:57:32.948Z,4.15
2018-02-06T12:00:02.030Z,6.05
2018-02-06T12:02:29.655Z,4.07
2018-02-06T12:04:57.274Z,6.75
2018-02-06T12:07:24.890Z,5.60
2018-02-06T12:09:52.519Z,5.45
2018-02-06T12:12:20.155Z,6.55
2018-02-06T12:14:47.787Z,3.17
2018-02-06T12:17:16.536Z,4.70
2018-02-06T12:19:44.135Z,3.50
2018-02-06T12:22:11.785Z,5.07
2018-02-06T12:27:55.568Z,3.95
2018-02-06T12:30:23.218Z,5.65
2018-02-06T12:32:50.858Z,6.68
2018-02-06T12:35:19.069Z,7.87
2018-02-06T12:37:46.697Z,8.38
2018-02-06T12:40:14.722Z,6.62
2018-02-06T12:42:42.405Z,7.50
2018-02-06T12:45:09.996Z,4.07
2018-02-06T12:47:37.736Z,6.70
2018-02-06T12:50:05.467Z,4.90
2018-02-06T12:52:33.061Z,5.22
2018-02-06T12:55:00.733Z,6.70
2018-02-06T12:57:28.435Z,6.75
2018-02-06T12:59:56.105Z,6.32
2018-02-06T13:02:24.130Z,6.20
2018-02-06T13:04:51.790Z,5.68
2018-02-06T13:07:19.432Z,3.50
2018-02-06T13:09:47.401Z,5.37
2018-02-06T13:12:15.051Z,6.07
2018-02-06T13:14:42.691Z,5.28
2018-02-06T13:17:10.670Z,4.12
2018-02-06T13:19:38.301Z,5.85
2018-02-06T13:22:05.953Z,4.82
2018-02-06T13:24:33.616Z,3.45
2018-02-06T13:27:01.205Z,6.03
2018-02-06T13:29:29.210Z,8.30
2018-02-06T13:31:56.823Z,4.37
2018-02-06T13:34:24.435Z,12.32
2018-02-06T13:36:56.984Z,3.20
2018-02-06T13:39:24.948Z,6.10
2018-02-06T13:41:52.636Z,8.90
2018-02-06T13:44:20.643Z,5.20
2018-02-06T13:46:48.269Z,6.50
2018-02-06T13:49:15.943Z,6.22
2018-02-06T13:51:43.604Z,6.70
2018-02-06T13:54:11.278Z,9.38
2018-02-06T13:56:38.906Z,5.32
2018-02-06T13:59:06.551Z,8.98
2018-02-06T14:01:34.249Z,8.77
2018-02-06T14:04:01.958Z,5.07
2018-02-06T14:06:29.816Z,9.43
2018-02-06T14:08:57.522Z,7.00
2018-02-06T14:11:25.660Z,5.82
2018-02-06T14:13:53.350Z,4.85
2018-02-06T14:16:20.955Z,6.18
2018-02-06T14:18:48.671Z,5.78
2018-02-06T14:21:16.307Z,4.87
2018-02-06T14:23:43.956Z,6.30
2018-02-06T14:26:11.814Z,5.78
2018-02-06T14:28:39.468Z,5.87
2018-02-06T14:31:07.191Z,7.90
2018-02-06T14:33:34.883Z,11.10
2018-02-06T14:36:02.652Z,6.70
2018-02-06T14:38:30.685Z,7.70
2018-02-06T14:40:58.836Z,7.78
2018-02-06T14:43:26.503Z,8.43
2018-02-06T14:45:54.236Z,11.05
2018-02-06T14:48:21.931Z,8.50
2018-02-06T14:50:49.616Z,7.60
2018-02-06T14:53:17.383Z,6.07
2018-02-06T14:55:45.036Z,9.43
2018-02-06T14:58:12.668Z,6.53
2018-02-06T15:00:40.336Z,8.35
2018-02-06T15:03:08.049Z,9.25
2018-02-06T15:05:36.064Z,6.37
2018-02-06T15:08:04.045Z,7.47
2018-02-06T15:10:31.648Z,6.55
2018-02-06T15:12:59.274Z,7.87
2018-02-06T15:15:26.919Z,6.75
2018-02-06T15:17:54.613Z,8.13
2018-02-06T15:20:22.272Z,10.63
2018-02-06T15:22:49.869Z,8.57
2018-02-06T15:25:18.384Z,8.85
2018-02-06T15:27:46.002Z,8.55
2018-02-06T15:30:13.642Z,6.00
2018-02-06T15:32:41.301Z,6.72
2018-02-06T15:35:08.898Z,9.88
2018-02-06T15:37:36.604Z,6.62
2018-02-06T15:40:04.663Z,7.15
2018-02-06T15:42:32.301Z,9.57
2018-02-06T15:44:59.988Z,8.57
2018-02-06T15:47:27.718Z,10.50
2018-02-06T15:49:55.327Z,11.82
2018-02-06T15:52:22.992Z,10.23
2018-02-06T15:54:50.738Z,9.52
2018-02-06T15:57:18.361Z,6.57
2018-02-06T15:59:47.258Z,8.38
2018-02-06T16:02:14.937Z,8.20
2018-02-06T16:04:42.975Z,8.52
2018-02-06T16:07:10.628Z,8.75
2018-02-06T16:09:38.279Z,6.28
2018-02-06T16:12:06.297Z,7.40
2018-02-06T16:14:33.996Z,7.30
2018-02-06T16:17:01.680Z,11.70
2018-02-06T16:19:29.354Z,8.65
2018-02-06T16:21:56.973Z,8.88
2018-02-06T16:24:24.912Z,7.18
2018-02-06T16:26:52.805Z,10.40
2018-02-06T16:29:20.401Z,8.65
2018-02-06T16:31:48.024Z,6.00
2018-02-06T16:34:15.650Z,8.82
2018-02-06T16:36:43.548Z,7.18
2018-02-06T16:39:11.236Z,6.57
2018-02-06T16:41:39.244Z,8.15
2018-02-06T16:44:07.188Z,5.37
2018-02-06T16:46:34.846Z,7.07
2018-02-06T16:49:02.476Z,5.00
2018-02-06T16:51:30.141Z,6.85
2018-02-06T16:53:57.743Z,5.97
2018-02-06T16:56:25.444Z,5.30
2018-02-06T16:58:53.007Z,9.43
2018-02-06T17:01:20.580Z,6.28
2018-02-06T17:03:48.189Z,6.32
2018-02-06T17:06:15.992Z,6.78
2018-02-06T17:08:43.577Z,5.87
2018-02-06T17:11:11.183Z,6.43
2018-02-06T17:13:39.195Z,7.62
2018-02-06T17:16:06.823Z,4.28
2018-02-06T17:18:34.747Z,5.55
2018-02-06T17:21:02.426Z,9.65
2018-02-06T17:23:30.097Z,8.70
2018-02-06T17:25:57.771Z,9.30
2018-02-06T17:28:25.467Z,4.15
2018-02-06T17:30:54.139Z,10.48
2018-02-06T17:33:21.760Z,6.93
2018-02-06T17:35:49.491Z,9.32
2018-02-06T17:38:17.134Z,9.25
2018-02-06T17:40:44.817Z,9.48
2018-02-06T17:43:12.464Z,6.43
2018-02-06T17:45:40.165Z,8.82
2018-02-06T17:48:07.890Z,11.63
2018-02-06T17:50:35.528Z,9.45
2018-02-06T17:53:03.198Z,9.95
2018-02-06T17:55:30.908Z,24.95
2018-02-06T17:57:58.669Z,9.05
2018-02-06T18:00:26.400Z,12.32
2018-02-06T18:02:54.412Z,11.82
2018-02-06T18:05:22.137Z,7.28
2018-02-06T18:07:49.818Z,10.10
2018-02-06T18:10:17.656Z,7.28
2018-02-06T18:12:45.322Z,9.35
2018-02-06T18:15:13.123Z,12.50
2018-02-06T18:17:40.728Z,6.00
2018-02-06T18:20:08.426Z,7.55
2018-02-06T18:22:36.426Z,11.95
2018-02-06T18:25:04.164Z,10.07
2018-02-06T18:27:31.901Z,13.55
2018-02-06T18:29:59.622Z,10.57
2018-02-06T18:32:27.277Z,12.90
2018-02-06T18:34:54.994Z,6.70
2018-02-06T18:37:22.683Z,7.40
2018-02-06T18:39:50.356Z,5.97
2018-02-06T18:42:18.009Z,5.18
2018-02-06T18:44:45.734Z,8.10
2018-02-06T18:47:13.369Z,8.82
2018-02-06T18:49:41.004Z,7.80
2018-02-06T18:52:08.720Z,13.13
2018-02-06T18:54:36.357Z,12.18
2018-02-06T18:57:04.198Z,9.52
2018-02-06T18:59:31.775Z,13.85
2018-02-06T19:01:59.727Z,7.78
2018-02-06T19:04:27.311Z,7.65
2018-02-06T19:06:54.958Z,11.38
2018-02-06T19:09:22.612Z,8.25
2018-02-06T19:11:50.233Z,19.80
2018-02-06T19:14:17.884Z,7.57
2018-02-06T19:16:45.521Z,12.95
2018-02-06T19:19:13.107Z,4.62
2018-02-06T19:21:40.778Z,6.68
2018-02-06T19:24:08.382Z,8.43
2018-02-06T19:26:36.043Z,6.50
2018-02-06T19:29:04.003Z,8.07
2018-02-06T19:31:31.667Z,7.82
2018-02-06T19:33:59.291Z,12.02
2018-02-06T19:36:26.954Z,4.68
2018-02-06T19:38:54.528Z,7.10
2018-02-06T19:41:22.172Z,8.43
2018-02-06T19:43:49.843Z,8.85
2018-02-06T19:46:17.427Z,4.35
2018-02-06T19:48:45.082Z,8.00
2018-02-06T19:51:12.740Z,5.80
2018-02-06T19:53:40.380Z,9.23
2018-02-06T19:56:08.034Z,8.20
2018-02-06T19:58:35.642Z,8.35
2018-02-06T20:01:03.331Z,7.90
2018-02-06T20:03:30.917Z,6.60
2018-02-06T20:05:58.857Z,9.55
2018-02-06T20:08:26.537Z,7.30
2018-02-06T20:10:54.230Z,8.57
2018-02-06T20:13:21.854Z,7.03
2018-02-06T20:15:49.455Z,7.15
2018-02-06T20:18:17.146Z,11.35
2018-02-06T20:20:44.928Z,10.02
2018-02-06T20:23:12.507Z,5.85
2018-02-06T20:25:40.109Z,7.70
2018-02-06T20:28:07.750Z,8.90
2018-02-06T20:30:35.443Z,5.70
2018-02-06T20:33:03.105Z,8.60
2018-02-06T20:35:30.726Z,7.15
2018-02-06T20:37:58.367Z,5.40
2018-02-06T20:40:26.001Z,9.15
2018-02-06T20:42:53.683Z,6.60
2018-02-06T20:45:21.383Z,7.37
2018-02-06T20:47:50.343Z,5.43
2018-02-06T20:50:17.952Z,6.85
2018-02-06T20:52:49.523Z,6.47
2018-02-06T20:55:18.458Z,6.07
2018-02-06T20:57:46.115Z,5.25
2018-02-06T21:00:13.717Z,10.38
2018-02-06T21:02:41.453Z,8.60
2018-02-06T21:05:09.415Z,7.62
2018-02-06T21:07:37.145Z,9.48
2018-02-06T21:10:04.831Z,7.82
2018-02-06T21:12:32.487Z,9.02
2018-02-06T21:15:00.086Z,6.82
2018-02-06T21:17:27.686Z,10.40
2018-02-06T21:19:55.332Z,10.63
2018-02-06T21:22:22.998Z,7.05
2018-02-06T21:24:50.647Z,7.82
2018-02-06T21:27:18.283Z,9.15
2018-02-06T21:29:45.973Z,7.40
2018-02-06T21:32:13.584Z,6.65
2018-02-06T21:34:41.254Z,8.90
2018-02-06T21:37:08.889Z,8.23
2018-02-06T21:39:36.519Z,8.00
2018-02-06T21:42:04.236Z,8.73
2018-02-06T21:44:31.855Z,7.62
2018-02-06T21:46:59.827Z,5.45
2018-02-06T21:49:27.461Z,5.97
2018-02-06T21:51:55.077Z,8.73
2018-02-06T21:54:23.098Z,9.27
2018-02-06T21:56:51.362Z,9.27
2018-02-06T21:59:19.027Z,8.52
2018-02-06T22:01:46.659Z,6.90
2018-02-06T22:04:14.301Z,10.35
2018-02-06T22:06:42.361Z,6.57
2018-02-06T22:09:09.937Z,14.18
2018-02-06T22:11:37.513Z,6.60
2018-02-06T22:14:05.188Z,9.43
2018-02-06T22:16:32.758Z,6.75
2018-02-06T22:19:00.356Z,9.68
2018-02-06T22:21:27.985Z,6.80
2018-02-06T22:23:55.580Z,7.03
2018-02-06T22:26:23.245Z,7.85
2018-02-06T22:28:50.949Z,12.65
2018-02-06T22:31:18.535Z,8.63
2018-02-06T22:33:46.169Z,7.47
2018-02-06T22:36:13.858Z,7.72
2018-02-06T22:38:41.527Z,6.32
2018-02-06T22:41:09.218Z,9.88
2018-02-06T22:43:36.824Z,12.20
2018-02-06T22:46:04.389Z,8.85
2018-02-06T22:48:32.055Z,9.35
2018-02-06T22:50:59.786Z,9.90
2018-02-06T22:53:27.464Z,10.05
2018-02-06T22:55:55.078Z,9.35
2018-02-06T22:58:23.042Z,9.02
2018-02-06T23:00:50.979Z,15.70
2018-02-06T23:03:18.558Z,10.82
2018-02-06T23:05:46.173Z,7.60
2018-02-06T23:08:13.784Z,10.98
2018-02-06T23:10:41.377Z,10.82
2018-02-06T23:13:09.068Z,11.55
2018-02-06T23:15:36.673Z,10.65
2018-02-06T23:18:04.347Z,13.65
2018-02-06T23:20:31.972Z,11.05
2018-02-06T23:22:59.567Z,12.48
2018-02-06T23:25:27.183Z,11.57
2018-02-06T23:27:55.094Z,10.68
2018-02-06T23:30:22.781Z,10.85
2018-02-06T23:32:56.659Z,14.50
2018-02-06T23:35:26.045Z,12.63
